createdAt,value
2023-05-09T00:00:43.743Z,19.60
2023-05-09T00:03:29.609Z,19.60
2023-05-09T00:06:15.592Z,19.80
2023-05-09T00:09:01.440Z,19.70
2023-05-09T00:11:48.773Z,19.70
2023-05-09T00:14:34.479Z,19.60
2023-05-09T00:17:22.587Z,19.50
2023-05-09T00:20:12.507Z,19.50
2023-05-09T00:22:58.258Z,19.60
2023-05-09T00:25:44.170Z,19.60
2023-05-09T00:28:32.289Z,19.60
2023-05-09T00:31:17.956Z,19.60
2023-05-09T00:34:03.624Z,19.70
2023-05-09T00:36:50.632Z,19.70
2023-05-09T00:39:36.377Z,19.70
2023-05-09T00:42:22.035Z,19.70
2023-05-09T00:45:10.636Z,19.70
2023-05-09T00:47:56.725Z,19.70
2023-05-09T00:50:42.906Z,19.70
2023-05-09T00:53:28.615Z,19.70
2023-05-09T00:56:15.107Z,19.70
2023-05-09T00:59:00.842Z,19.70
2023-05-09T01:01:48.190Z,19.90
2023-05-09T01:04:34.112Z,20.00
2023-05-09T01:07:29.045Z,20.10
2023-05-09T01:10:22.826Z,20.20
2023-05-09T01:13:22.735Z,20.30
2023-05-09T01:16:16.854Z,20.30
2023-05-09T01:19:22.657Z,20.20
2023-05-09T01:22:12.010Z,20.30
2023-05-09T01:25:36.123Z,20.10
2023-05-09T01:28:35.623Z,20.00
2023-05-09T01:31:24.197Z,19.90
2023-05-09T01:34:12.178Z,19.90
2023-05-09T01:37:00.865Z,20.10
2023-05-09T01:39:49.952Z,20.10
2023-05-09T01:42:41.289Z,20.10
2023-05-09T01:45:28.633Z,20.10
2023-05-09T01:48:16.768Z,20.00
2023-05-09T01:51:04.051Z,19.90
2023-05-09T01:53:51.606Z,19.90
2023-05-09T01:56:39.016Z,19.90
2023-05-09T01:59:26.799Z,19.90
2023-05-09T02:02:12.949Z,20.00
2023-05-09T02:05:00.807Z,20.00
2023-05-09T02:07:47.641Z,19.90
2023-05-09T02:10:34.645Z,19.90
2023-05-09T02:13:20.136Z,19.80
2023-05-09T02:16:07.756Z,19.90
2023-05-09T02:18:55.179Z,20.00
2023-05-09T02:21:42.273Z,19.70
2023-05-09T02:24:29.727Z,19.60
2023-05-09T02:27:16.262Z,19.60
2023-05-09T02:30:07.405Z,19.70
2023-05-09T02:32:57.096Z,19.80
2023-05-09T02:35:45.432Z,19.70
2023-05-09T02:38:33.675Z,19.70
2023-05-09T02:41:21.809Z,19.80
2023-05-09T02:44:07.962Z,19.80
2023-05-09T02:46:53.337Z,19.70
2023-05-09T02:49:38.960Z,19.70
2023-05-09T02:52:24.960Z,19.80
2023-05-09T02:55:12.546Z,19.90
2023-05-09T02:58:12.897Z,19.70
2023-05-09T03:01:00.145Z,19.90
2023-05-09T03:03:46.352Z,19.80
2023-05-09T03:06:33.102Z,19.80
2023-05-09T03:09:19.049Z,19.70
2023-05-09T03:12:06.656Z,19.70
2023-05-09T03:14:52.715Z,19.70
2023-05-09T03:17:39.183Z,19.60
2023-05-09T03:20:25.862Z,19.60
2023-05-09T03:23:11.732Z,19.50
2023-05-09T03:25:57.368Z,19.60
2023-05-09T03:28:46.276Z,19.50
2023-05-09T03:31:32.363Z,19.50
2023-05-09T03:34:18.279Z,19.50
2023-05-09T03:37:04.313Z,19.50
2023-05-09T03:39:51.868Z,19.50
2023-05-09T03:42:37.905Z,19.30
2023-05-09T03:45:26.497Z,19.20
2023-05-09T03:48:12.857Z,19.30
2023-05-09T03:51:04.785Z,19.10
2023-05-09T03:53:53.506Z,19.10
2023-05-09T03:56:40.504Z,19.00
2023-05-09T03:59:26.085Z,18.90
2023-05-09T04:02:13.620Z,19.10
2023-05-09T04:04:59.337Z,19.00
2023-05-09T04:07:45.473Z,19.20
2023-05-09T04:10:32.197Z,19.10
2023-05-09T04:13:18.068Z,19.10
2023-05-09T04:16:05.616Z,18.90
2023-05-09T04:18:54.287Z,18.80
2023-05-09T04:21:39.717Z,18.90
2023-05-09T04:24:25.973Z,18.70
2023-05-09T04:27:11.793Z,18.90
2023-05-09T04:29:57.774Z,19.00
2023-05-09T04:32:46.047Z,18.90
2023-05-09T04:35:33.621Z,18.90
2023-05-09T04:38:19.525Z,18.80
2023-05-09T04:41:06.037Z,18.80
2023-05-09T04:43:52.336Z,18.90
2023-05-09T04:46:39.346Z,18.70
2023-05-09T04:49:25.298Z,18.80
2023-05-09T04:52:12.169Z,18.80
2023-05-09T04:54:57.684Z,18.80
2023-05-09T04:57:47.304Z,18.80
2023-05-09T05:00:33.775Z,19.00
2023-05-09T05:03:19.813Z,19.20
2023-05-09T05:06:06.572Z,19.00
2023-05-09T05:08:53.714Z,18.80
2023-05-09T05:14:25.152Z,19.10
2023-05-09T05:17:10.805Z,19.40
2023-05-09T05:19:57.039Z,19.60
2023-05-09T05:22:43.632Z,20.10
2023-05-09T05:25:31.322Z,20.30
2023-05-09T05:28:19.243Z,20.60
2023-05-09T05:31:05.443Z,20.40
2023-05-09T05:33:51.786Z,20.40
2023-05-09T05:36:39.129Z,20.50
2023-05-09T05:39:24.977Z,20.70
2023-05-09T05:42:13.626Z,20.60
2023-05-09T05:45:06.273Z,20.60
2023-05-09T05:47:56.389Z,20.60
2023-05-09T05:50:43.133Z,20.80
2023-05-09T05:53:32.146Z,21.00
2023-05-09T05:56:19.093Z,21.00
2023-05-09T05:59:06.617Z,20.90
2023-05-09T06:01:52.653Z,21.20
2023-05-09T06:04:38.808Z,21.10
2023-05-09T06:07:24.385Z,21.10
2023-05-09T06:10:11.367Z,21.30
2023-05-09T06:12:57.192Z,21.60
2023-05-09T06:15:44.354Z,21.70
2023-05-09T06:18:31.088Z,21.70
2023-05-09T06:21:17.079Z,21.60
2023-05-09T06:24:11.779Z,21.50
2023-05-09T06:27:00.703Z,21.80
2023-05-09T06:29:46.603Z,22.20
2023-05-09T06:32:33.680Z,22.80
2023-05-09T06:35:19.616Z,23.30
2023-05-09T06:38:05.032Z,23.80
2023-05-09T06:40:50.772Z,23.90
2023-05-09T06:43:36.590Z,24.00
2023-05-09T06:46:22.468Z,23.80
2023-05-09T06:49:09.583Z,23.50
2023-05-09T06:51:55.322Z,23.00
2023-05-09T06:54:40.827Z,22.90
2023-05-09T06:57:26.993Z,22.50
2023-05-09T07:00:14.181Z,22.20
2023-05-09T07:03:00.147Z,22.00
2023-05-09T07:05:47.243Z,21.70
2023-05-09T07:08:32.968Z,21.70
2023-05-09T07:11:18.787Z,21.80
2023-05-09T07:14:04.716Z,21.80
2023-05-09T07:16:50.879Z,21.60
2023-05-09T07:19:36.791Z,21.60
2023-05-09T07:22:24.130Z,21.30
2023-05-09T07:25:10.614Z,21.20
2023-05-09T07:27:56.234Z,21.30
2023-05-09T07:30:43.669Z,21.60
2023-05-09T07:33:29.696Z,21.60
2023-05-09T07:36:17.110Z,21.90
2023-05-09T07:39:04.912Z,22.30
2023-05-09T07:41:50.737Z,22.40
2023-05-09T07:44:36.688Z,22.60
2023-05-09T07:47:22.376Z,22.80
2023-05-09T07:50:09.211Z,22.80
2023-05-09T07:52:55.661Z,22.40
2023-05-09T07:55:44.583Z,22.30
2023-05-09T07:58:30.573Z,22.30
2023-05-09T08:01:16.169Z,22.10
2023-05-09T08:04:02.279Z,22.10
2023-05-09T08:06:48.132Z,22.10
2023-05-09T08:09:33.688Z,21.60
2023-05-09T08:12:21.059Z,21.50
2023-05-09T08:15:07.705Z,21.40
2023-05-09T08:17:53.743Z,21.40
2023-05-09T08:20:39.865Z,21.30
2023-05-09T08:23:25.413Z,21.20
2023-05-09T08:26:11.254Z,21.30
2023-05-09T08:28:58.081Z,21.30
2023-05-09T08:31:43.876Z,21.00
2023-05-09T08:34:34.400Z,20.90
2023-05-09T08:37:20.226Z,20.80
2023-05-09T08:40:07.784Z,20.90
2023-05-09T08:42:54.302Z,20.80
2023-05-09T08:45:49.640Z,20.20
2023-05-09T08:48:38.703Z,20.10
2023-05-09T08:51:25.055Z,20.20
2023-05-09T08:54:11.849Z,20.50
2023-05-09T08:56:57.831Z,20.60
2023-05-09T08:59:45.438Z,20.60
2023-05-09T09:02:33.515Z,20.60
2023-05-09T09:05:40.263Z,20.70
2023-05-09T09:08:26.226Z,20.60
2023-05-09T09:11:13.289Z,20.70
2023-05-09T09:14:01.998Z,20.70
2023-05-09T09:16:48.947Z,20.60
2023-05-09T09:19:40.934Z,20.80
2023-05-09T09:22:33.678Z,20.80
2023-05-09T09:25:19.562Z,20.70
2023-05-09T09:28:05.363Z,20.60
2023-05-09T09:30:51.234Z,20.60
2023-05-09T09:33:37.134Z,20.80
2023-05-09T09:36:33.399Z,20.60
2023-05-09T09:39:19.406Z,20.90
2023-05-09T09:42:11.937Z,20.90
2023-05-09T09:45:02.378Z,20.90
2023-05-09T09:47:49.975Z,20.90
2023-05-09T09:50:35.555Z,20.70
2023-05-09T09:53:23.791Z,20.50
2023-05-09T09:56:10.119Z,20.40
2023-05-09T09:59:09.499Z,20.50
2023-05-09T10:01:57.387Z,20.40
2023-05-09T10:04:44.299Z,20.50
2023-05-09T10:07:35.350Z,20.40
2023-05-09T10:10:24.077Z,20.60
2023-05-09T10:13:12.047Z,20.40
2023-05-09T10:15:58.781Z,20.20
2023-05-09T10:18:44.838Z,19.60
2023-05-09T10:21:31.514Z,19.50
2023-05-09T10:24:22.258Z,19.60
2023-05-09T10:27:11.261Z,19.50
2023-05-09T10:30:07.099Z,19.20
2023-05-09T10:32:57.861Z,19.30
2023-05-09T10:35:46.756Z,19.50
2023-05-09T10:38:33.004Z,19.50
2023-05-09T10:41:19.927Z,19.20
2023-05-09T10:44:07.740Z,19.20
2023-05-09T10:46:54.180Z,19.10
2023-05-09T10:49:40.928Z,19.20
2023-05-09T10:52:32.893Z,18.70
2023-05-09T10:55:19.008Z,18.70
2023-05-09T10:58:22.775Z,18.60
2023-05-09T11:01:10.723Z,18.70
2023-05-09T11:03:58.311Z,18.80
2023-05-09T11:06:51.664Z,18.80
2023-05-09T11:09:41.200Z,18.40
2023-05-09T11:12:27.286Z,18.40
2023-05-09T11:15:13.166Z,18.30
2023-05-09T11:18:09.323Z,18.30
2023-05-09T11:20:56.017Z,18.40
2023-05-09T11:23:41.579Z,18.40
2023-05-09T11:26:30.366Z,18.50
2023-05-09T11:29:16.139Z,18.60
2023-05-09T11:32:05.901Z,18.70
2023-05-09T11:35:05.157Z,19.00
2023-05-09T11:37:52.913Z,19.10
2023-05-09T11:40:40.053Z,19.20
2023-05-09T11:43:25.912Z,19.00
2023-05-09T11:46:12.709Z,19.20
2023-05-09T11:48:59.345Z,18.90
2023-05-09T11:51:46.693Z,19.10
2023-05-09T11:54:32.465Z,18.80
2023-05-09T11:57:18.292Z,18.70
2023-05-09T12:00:06.356Z,18.80
2023-05-09T12:02:53.108Z,18.90
2023-05-09T12:05:42.688Z,18.80
2023-05-09T12:08:30.208Z,18.80
2023-05-09T12:11:16.014Z,18.50
2023-05-09T12:14:01.546Z,18.50
2023-05-09T12:16:47.153Z,18.60
2023-05-09T12:19:32.807Z,18.50
2023-05-09T12:22:20.084Z,18.80
2023-05-09T12:25:09.590Z,18.70
2023-05-09T12:27:57.270Z,18.90
2023-05-09T12:30:43.880Z,19.00
2023-05-09T12:33:30.510Z,19.00
2023-05-09T12:36:16.875Z,19.00
2023-05-09T12:39:02.715Z,19.20
2023-05-09T12:42:01.085Z,19.30
2023-05-09T12:44:50.731Z,19.20
2023-05-09T12:47:38.830Z,19.20
2023-05-09T12:50:32.190Z,19.10
2023-05-09T12:53:24.552Z,18.90
2023-05-09T12:56:18.095Z,18.80
2023-05-09T12:59:11.263Z,19.00
2023-05-09T13:01:59.112Z,19.20
2023-05-09T13:04:45.064Z,19.30
2023-05-09T13:07:39.129Z,18.80
2023-05-09T13:10:30.362Z,19.10
2023-05-09T13:13:16.498Z,19.30
2023-05-09T13:16:05.750Z,19.40
2023-05-09T13:18:52.673Z,19.70
2023-05-09T13:21:38.487Z,19.80
2023-05-09T13:24:24.431Z,19.70
2023-05-09T13:27:10.966Z,19.50
2023-05-09T13:29:56.843Z,19.70
2023-05-09T13:32:44.234Z,19.70
2023-05-09T13:35:30.365Z,19.50
2023-05-09T13:38:16.039Z,19.20
2023-05-09T13:41:01.607Z,19.30
2023-05-09T13:43:47.478Z,19.50
2023-05-09T13:46:33.174Z,19.40
2023-05-09T13:49:20.408Z,19.40
2023-05-09T13:52:06.813Z,18.80
2023-05-09T13:54:52.767Z,19.30
2023-05-09T13:57:38.949Z,19.60
2023-05-09T14:00:26.560Z,19.60
2023-05-09T14:03:12.109Z,19.40
2023-05-09T14:05:59.734Z,19.60
2023-05-09T14:08:45.826Z,19.20
2023-05-09T14:11:31.769Z,19.20
2023-05-09T14:14:17.814Z,19.10
2023-05-09T14:17:04.476Z,19.20
2023-05-09T14:19:50.119Z,19.20
2023-05-09T14:22:37.346Z,19.20
2023-05-09T14:25:23.106Z,19.20
2023-05-09T14:28:09.559Z,19.20
2023-05-09T14:30:55.459Z,19.30
2023-05-09T14:33:41.212Z,19.40
2023-05-09T14:36:27.307Z,19.60
2023-05-09T14:39:14.185Z,19.60
2023-05-09T14:42:00.181Z,19.70
2023-05-09T14:44:47.280Z,19.90
2023-05-09T14:47:34.337Z,19.70
2023-05-09T14:50:21.559Z,19.70
2023-05-09T14:53:07.703Z,19.50
2023-05-09T14:55:55.276Z,19.20
2023-05-09T14:58:41.079Z,19.30
2023-05-09T15:01:26.977Z,19.30
2023-05-09T15:04:13.208Z,18.90
2023-05-09T15:06:59.841Z,18.80
2023-05-09T15:09:46.108Z,18.60
2023-05-09T15:12:36.317Z,18.80
2023-05-09T15:15:24.053Z,18.70
2023-05-09T15:18:10.332Z,18.60
2023-05-09T15:20:56.591Z,18.80
2023-05-09T15:23:42.075Z,19.00
2023-05-09T15:26:28.057Z,19.00
2023-05-09T15:29:15.385Z,19.10
2023-05-09T15:32:01.222Z,19.20
2023-05-09T15:34:47.343Z,19.10
2023-05-09T15:37:35.066Z,19.20
2023-05-09T15:40:21.410Z,19.10
2023-05-09T15:43:08.356Z,18.80
2023-05-09T15:45:58.508Z,18.90
2023-05-09T15:48:44.543Z,18.90
2023-05-09T15:51:31.077Z,18.90
2023-05-09T15:54:17.198Z,18.90
2023-05-09T15:57:03.683Z,19.30
2023-05-09T15:59:49.508Z,19.40
2023-05-09T16:02:36.772Z,19.40
2023-05-09T16:05:22.540Z,19.40
2023-05-09T16:08:07.966Z,19.40
2023-05-09T16:10:54.092Z,19.50
2023-05-09T16:13:40.024Z,19.50
2023-05-09T16:16:25.875Z,19.20
2023-05-09T16:19:14.013Z,19.10
2023-05-09T16:21:59.801Z,19.10
2023-05-09T16:24:45.314Z,19.10
2023-05-09T16:27:31.305Z,19.20
2023-05-09T16:30:17.476Z,19.10
2023-05-09T16:33:03.910Z,19.10
2023-05-09T16:35:51.393Z,19.40
2023-05-09T16:38:37.049Z,19.50
2023-05-09T16:41:23.046Z,19.60
2023-05-09T16:44:09.095Z,19.60
2023-05-09T16:46:54.922Z,19.60
2023-05-09T16:49:41.094Z,19.40
2023-05-09T16:52:28.058Z,19.50
2023-05-09T16:55:13.671Z,19.50
2023-05-09T16:57:59.189Z,19.50
2023-05-09T17:00:45.312Z,19.60
2023-05-09T17:03:31.286Z,19.30
2023-05-09T17:06:17.306Z,19.20
2023-05-09T17:09:10.165Z,19.30
2023-05-09T17:11:56.208Z,19.20
2023-05-09T17:14:42.179Z,19.30
2023-05-09T17:17:27.771Z,19.20
2023-05-09T17:20:13.699Z,19.30
2023-05-09T17:23:02.672Z,19.40
2023-05-09T17:25:50.480Z,19.20
2023-05-09T17:28:36.909Z,19.00
2023-05-09T17:31:22.794Z,18.90
2023-05-09T17:34:08.414Z,18.90
2023-05-09T17:36:54.158Z,19.10
2023-05-09T17:39:40.727Z,19.10
2023-05-09T17:42:27.506Z,19.20
2023-05-09T17:45:13.220Z,19.00
2023-05-09T17:48:01.361Z,19.10
2023-05-09T17:50:47.144Z,18.90
2023-05-09T17:53:33.406Z,19.00
2023-05-09T17:56:19.229Z,18.90
2023-05-09T17:59:06.536Z,18.90
2023-05-09T18:01:52.821Z,19.10
2023-05-09T18:04:39.149Z,18.60
2023-05-09T18:07:25.283Z,18.60
2023-05-09T18:10:11.707Z,18.70
2023-05-09T18:12:57.571Z,18.60
2023-05-09T18:15:44.724Z,18.40
2023-05-09T18:18:34.294Z,18.60
2023-05-09T18:21:20.224Z,18.70
2023-05-09T18:24:07.639Z,18.50
2023-05-09T18:26:53.346Z,18.60
2023-05-09T18:29:38.988Z,18.60
2023-05-09T18:32:26.218Z,18.50
2023-05-09T18:35:12.936Z,18.50
2023-05-09T18:37:59.128Z,18.60
2023-05-09T18:40:45.629Z,18.70
2023-05-09T18:43:31.200Z,18.50
2023-05-09T18:46:21.362Z,18.40
2023-05-09T18:49:09.518Z,18.50
2023-05-09T18:51:56.452Z,18.60
2023-05-09T18:54:42.796Z,18.80
2023-05-09T18:57:28.636Z,18.70
2023-05-09T19:00:15.239Z,18.70
2023-05-09T19:03:01.658Z,18.50
2023-05-09T19:05:48.600Z,18.50
2023-05-09T19:08:34.570Z,18.30
2023-05-09T19:11:20.184Z,18.50
2023-05-09T19:14:06.564Z,18.60
2023-05-09T19:16:52.122Z,18.60
2023-05-09T19:19:38.222Z,18.50
2023-05-09T19:22:25.237Z,18.50
2023-05-09T19:25:10.814Z,18.50
2023-05-09T19:27:56.469Z,18.60
2023-05-09T19:30:42.300Z,18.50
2023-05-09T19:33:28.307Z,18.60
2023-05-09T19:36:14.495Z,18.60
2023-05-09T19:39:01.380Z,18.60
2023-05-09T19:41:46.848Z,18.70
2023-05-09T19:44:32.818Z,18.50
2023-05-09T19:47:18.365Z,18.50
2023-05-09T19:50:04.601Z,18.50
2023-05-09T19:52:50.675Z,18.60
2023-05-09T19:55:37.947Z,18.60
2023-05-09T19:58:23.745Z,18.60
2023-05-09T20:01:10.155Z,18.60
2023-05-09T20:03:56.833Z,18.60
2023-05-09T20:06:42.439Z,18.60
2023-05-09T20:09:28.063Z,18.50
2023-05-09T20:12:15.980Z,18.40
2023-05-09T20:15:01.735Z,18.40
2023-05-09T20:17:48.276Z,18.50
2023-05-09T20:20:33.999Z,18.20
2023-05-09T20:23:19.466Z,18.30
2023-05-09T20:26:05.614Z,18.50
2023-05-09T20:28:54.501Z,18.50
2023-05-09T20:31:41.549Z,18.50
2023-05-09T20:34:27.367Z,18.30
2023-05-09T20:37:13.630Z,18.30
2023-05-09T20:40:00.516Z,18.10
2023-05-09T20:42:46.315Z,17.90
2023-05-09T20:45:33.220Z,18.00
2023-05-09T20:48:22.435Z,18.00
2023-05-09T20:51:08.418Z,17.90
2023-05-09T20:53:54.199Z,17.80
2023-05-09T20:56:40.041Z,17.80
2023-05-09T20:59:25.650Z,17.60
2023-05-09T21:02:13.620Z,17.50
2023-05-09T21:04:59.288Z,17.50
2023-05-09T21:07:45.089Z,17.20
2023-05-09T21:10:30.880Z,17.40
2023-05-09T21:13:16.361Z,17.40
2023-05-09T21:16:02.040Z,17.20
2023-05-09T21:18:48.893Z,17.30
2023-05-09T21:21:34.522Z,17.20
2023-05-09T21:24:20.070Z,17.40
2023-05-09T21:27:06.164Z,17.40
2023-05-09T21:29:52.105Z,17.50
2023-05-09T21:32:37.631Z,17.50
2023-05-09T21:35:24.920Z,17.40
2023-05-09T21:38:11.003Z,17.40
2023-05-09T21:40:56.403Z,17.40
2023-05-09T21:43:41.926Z,17.30
2023-05-09T21:46:27.633Z,17.40
2023-05-09T21:49:16.545Z,17.50
2023-05-09T21:52:04.195Z,17.40
2023-05-09T21:54:50.095Z,17.50
2023-05-09T21:57:35.640Z,17.60
2023-05-09T22:00:21.467Z,17.70
2023-05-09T22:03:07.278Z,17.80
2023-05-09T22:05:52.904Z,17.70
2023-05-09T22:08:39.938Z,17.70
2023-05-09T22:11:25.259Z,17.60
2023-05-09T22:14:11.237Z,17.60
2023-05-09T22:16:56.748Z,17.80
2023-05-09T22:19:42.120Z,17.70
2023-05-09T22:22:27.870Z,17.70
2023-05-09T22:25:15.220Z,17.70
2023-05-09T22:28:01.111Z,17.80
2023-05-09T22:30:47.102Z,17.80
2023-05-09T22:33:32.576Z,17.80
2023-05-09T22:36:18.498Z,17.70
2023-05-09T22:39:03.950Z,17.90
2023-05-09T22:41:51.044Z,17.80
2023-05-09T22:44:36.856Z,17.80
2023-05-09T22:47:22.686Z,17.70
2023-05-09T22:50:09.400Z,17.80
2023-05-09T22:52:55.113Z,17.70
2023-05-09T22:55:40.559Z,17.80
2023-05-09T22:58:27.785Z,17.80
2023-05-09T23:01:13.871Z,17.70
2023-05-09T23:04:01.043Z,17.70
2023-05-09T23:06:46.551Z,17.70
2023-05-09T23:09:31.942Z,17.70
2023-05-09T23:12:17.698Z,17.80
2023-05-09T23:15:05.647Z,17.70
2023-05-09T23:17:51.482Z,17.70
2023-05-09T23:20:37.515Z,17.60
2023-05-09T23:23:23.203Z,17.70
2023-05-09T23:26:10.140Z,17.80
2023-05-09T23:28:56.173Z,17.70
2023-05-09T23:31:43.452Z,17.70
2023-05-09T23:34:30.749Z,17.70
2023-05-09T23:37:16.832Z,17.80
2023-05-09T23:40:03.769Z,17.60
2023-05-09T23:42:49.164Z,17.60
2023-05-09T23:45:35.642Z,17.50
2023-05-09T23:48:23.908Z,17.60
2023-05-09T23:51:09.511Z,17.50
2023-05-09T23:53:55.125Z,17.40
2023-05-09T23:56:41.190Z,17.60
2023-05-09T23:59:26.644Z,17.50
